sensor_id;sensor_type;location;lat;lon;timestamp;P1;durP1;ratioP1;P2;durP2;ratioP2
37895;SDS011;23733;53.254;10.430;2022-08-19T00:00:13;9.43;;;5.60;;
37895;SDS011;23733;53.254;10.430;2022-08-19T00:02:41;7.10;;;5.87;;
37895;SDS011;23733;53.254;10.430;2022-08-19T00:05:08;11.07;;;5.90;;
37895;SDS011;23733;53.254;10.430;2022-08-19T00:07:35;9.60;;;5.27;;
37895;SDS011;23733;53.254;10.430;2022-08-19T00:10:01;9.10;;;6.23;;
37895;SDS011;23733;53.254;10.430;2022-08-19T00:12:27;10.03;;;5.60;;
37895;SDS011;23733;53.254;10.430;2022-08-19T00:14:53;9.07;;;5.77;;
37895;SDS011;23733;53.254;10.430;2022-08-19T00:17:20;10.40;;;5.20;;
37895;SDS011;23733;53.254;10.430;2022-08-19T00:19:46;7.80;;;5.70;;
37895;SDS011;23733;53.254;10.430;2022-08-19T00:22:12;7.90;;;5.40;;
37895;SDS011;23733;53.254;10.430;2022-08-19T00:24:38;8.43;;;5.73;;
37895;SDS011;23733;53.254;10.430;2022-08-19T00:27:04;10.73;;;6.03;;
37895;SDS011;23733;53.254;10.430;2022-08-19T00:29:30;9.10;;;5.40;;
37895;SDS011;23733;53.254;10.430;2022-08-19T00:31:56;9.47;;;5.27;;
37895;SDS011;23733;53.254;10.430;2022-08-19T00:34:24;9.73;;;5.43;;
37895;SDS011;23733;53.254;10.430;2022-08-19T00:36:53;7.13;;;5.23;;
37895;SDS011;23733;53.254;10.430;2022-08-19T00:39:20;6.33;;;4.43;;
37895;SDS011;23733;53.254;10.430;2022-08-19T00:41:46;7.43;;;4.60;;
37895;SDS011;23733;53.254;10.430;2022-08-19T00:44:15;7.13;;;4.60;;
37895;SDS011;23733;53.254;10.430;2022-08-19T00:46:46;6.03;;;4.23;;
37895;SDS011;23733;53.254;10.430;2022-08-19T00:49:24;8.07;;;5.30;;
37895;SDS011;23733;53.254;10.430;2022-08-19T00:52:04;7.90;;;4.50;;
37895;SDS011;23733;53.254;10.430;2022-08-19T00:54:34;7.80;;;5.03;;
37895;SDS011;23733;53.254;10.430;2022-08-19T00:57:03;10.17;;;5.60;;
37895;SDS011;23733;53.254;10.430;2022-08-19T00:59:34;9.70;;;4.73;;
37895;SDS011;23733;53.254;10.430;2022-08-19T01:02:02;6.93;;;4.50;;
37895;SDS011;23733;53.254;10.430;2022-08-19T01:04:29;7.90;;;5.30;;
37895;SDS011;23733;53.254;10.430;2022-08-19T01:06:55;10.33;;;5.53;;
37895;SDS011;23733;53.254;10.430;2022-08-19T01:09:22;8.97;;;5.03;;
37895;SDS011;23733;53.254;10.430;2022-08-19T01:11:48;7.37;;;4.70;;
37895;SDS011;23733;53.254;10.430;2022-08-19T01:14:14;8.77;;;4.63;;
37895;SDS011;23733;53.254;10.430;2022-08-19T01:16:42;8.47;;;5.40;;
37895;SDS011;23733;53.254;10.430;2022-08-19T01:19:10;10.57;;;5.00;;
37895;SDS011;23733;53.254;10.430;2022-08-19T01:21:45;8.13;;;5.07;;
37895;SDS011;23733;53.254;10.430;2022-08-19T01:24:17;8.83;;;4.50;;
37895;SDS011;23733;53.254;10.430;2022-08-19T01:26:43;8.00;;;4.80;;
37895;SDS011;23733;53.254;10.430;2022-08-19T01:29:10;10.83;;;5.47;;
37895;SDS011;23733;53.254;10.430;2022-08-19T01:31:36;8.43;;;5.30;;
37895;SDS011;23733;53.254;10.430;2022-08-19T01:34:04;6.77;;;5.13;;
37895;SDS011;23733;53.254;10.430;2022-08-19T01:36:36;11.17;;;5.10;;
37895;SDS011;23733;53.254;10.430;2022-08-19T01:39:12;8.73;;;5.37;;
37895;SDS011;23733;53.254;10.430;2022-08-19T01:41:40;8.17;;;5.03;;
37895;SDS011;23733;53.254;10.430;2022-08-19T01:44:08;8.73;;;5.13;;
37895;SDS011;23733;53.254;10.430;2022-08-19T01:46:35;9.07;;;5.43;;
37895;SDS011;23733;53.254;10.430;2022-08-19T01:49:02;11.17;;;5.80;;
37895;SDS011;23733;53.254;10.430;2022-08-19T01:51:30;7.67;;;5.10;;
37895;SDS011;23733;53.254;10.430;2022-08-19T01:53:56;9.37;;;5.57;;
37895;SDS011;23733;53.254;10.430;2022-08-19T01:56:23;8.23;;;4.90;;
37895;SDS011;23733;53.254;10.430;2022-08-19T01:58:51;8.80;;;5.80;;
37895;SDS011;23733;53.254;10.430;2022-08-19T02:01:21;7.50;;;5.23;;
37895;SDS011;23733;53.254;10.430;2022-08-19T02:03:47;7.57;;;5.13;;
37895;SDS011;23733;53.254;10.430;2022-08-19T02:06:13;7.43;;;5.23;;
37895;SDS011;23733;53.254;10.430;2022-08-19T02:08:39;8.83;;;5.30;;
37895;SDS011;23733;53.254;10.430;2022-08-19T02:11:06;7.93;;;5.23;;
37895;SDS011;23733;53.254;10.430;2022-08-19T02:13:33;7.97;;;5.53;;
37895;SDS011;23733;53.254;10.430;2022-08-19T02:15:59;9.13;;;5.50;;
37895;SDS011;23733;53.254;10.430;2022-08-19T02:18:25;8.53;;;6.13;;
37895;SDS011;23733;53.254;10.430;2022-08-19T02:20:52;9.10;;;5.50;;
37895;SDS011;23733;53.254;10.430;2022-08-19T02:23:18;9.17;;;5.20;;
37895;SDS011;23733;53.254;10.430;2022-08-19T02:25:44;6.60;;;5.20;;
37895;SDS011;23733;53.254;10.430;2022-08-19T02:28:12;10.87;;;5.23;;
37895;SDS011;23733;53.254;10.430;2022-08-19T02:30:38;6.93;;;5.13;;
37895;SDS011;23733;53.254;10.430;2022-08-19T02:33:06;9.97;;;5.13;;
37895;SDS011;23733;53.254;10.430;2022-08-19T02:35:32;7.67;;;4.90;;
37895;SDS011;23733;53.254;10.430;2022-08-19T02:37:58;8.37;;;5.10;;
37895;SDS011;23733;53.254;10.430;2022-08-19T02:40:50;7.77;;;4.97;;
37895;SDS011;23733;53.254;10.430;2022-08-19T02:43:18;7.60;;;5.13;;
37895;SDS011;23733;53.254;10.430;2022-08-19T02:45:45;10.57;;;4.90;;
37895;SDS011;23733;53.254;10.430;2022-08-19T02:48:17;7.30;;;5.00;;
37895;SDS011;23733;53.254;10.430;2022-08-19T02:50:44;8.00;;;5.40;;
37895;SDS011;23733;53.254;10.430;2022-08-19T02:53:11;7.63;;;5.50;;
37895;SDS011;23733;53.254;10.430;2022-08-19T02:55:44;8.93;;;5.00;;
37895;SDS011;23733;53.254;10.430;2022-08-19T02:58:12;6.90;;;5.10;;
37895;SDS011;23733;53.254;10.430;2022-08-19T03:00:45;9.13;;;5.30;;
37895;SDS011;23733;53.254;10.430;2022-08-19T03:03:16;7.77;;;5.57;;
37895;SDS011;23733;53.254;10.430;2022-08-19T03:05:43;10.33;;;5.70;;
37895;SDS011;23733;53.254;10.430;2022-08-19T03:08:09;8.37;;;5.50;;
37895;SDS011;23733;53.254;10.430;2022-08-19T03:10:44;11.17;;;5.77;;
37895;SDS011;23733;53.254;10.430;2022-08-19T03:13:15;9.80;;;5.43;;
37895;SDS011;23733;53.254;10.430;2022-08-19T03:15:43;10.20;;;5.90;;
37895;SDS011;23733;53.254;10.430;2022-08-19T03:18:11;8.97;;;6.27;;
37895;SDS011;23733;53.254;10.430;2022-08-19T03:20:45;8.90;;;6.80;;
37895;SDS011;23733;53.254;10.430;2022-08-19T03:23:13;13.67;;;6.87;;
37895;SDS011;23733;53.254;10.430;2022-08-19T03:25:42;11.33;;;7.80;;
37895;SDS011;23733;53.254;10.430;2022-08-19T03:28:10;12.73;;;7.70;;
37895;SDS011;23733;53.254;10.430;2022-08-19T03:30:38;10.57;;;7.27;;
37895;SDS011;23733;53.254;10.430;2022-08-19T03:33:07;13.60;;;8.73;;
37895;SDS011;23733;53.254;10.430;2022-08-19T03:35:34;12.63;;;8.27;;
37895;SDS011;23733;53.254;10.430;2022-08-19T03:38:03;16.90;;;9.77;;
37895;SDS011;23733;53.254;10.430;2022-08-19T03:40:31;15.00;;;9.67;;
37895;SDS011;23733;53.254;10.430;2022-08-19T03:42:57;15.70;;;10.10;;
37895;SDS011;23733;53.254;10.430;2022-08-19T03:45:23;14.90;;;10.20;;
37895;SDS011;23733;53.254;10.430;2022-08-19T03:47:49;12.50;;;8.07;;
37895;SDS011;23733;53.254;10.430;2022-08-19T03:50:15;15.23;;;8.97;;
37895;SDS011;23733;53.254;10.430;2022-08-19T03:52:42;18.60;;;10.67;;
37895;SDS011;23733;53.254;10.430;2022-08-19T03:55:13;14.27;;;9.30;;
37895;SDS011;23733;53.254;10.430;2022-08-19T03:57:39;16.93;;;8.70;;
37895;SDS011;23733;53.254;10.430;2022-08-19T04:00:05;15.97;;;9.90;;
37895;SDS011;23733;53.254;10.430;2022-08-19T04:02:32;14.40;;;9.73;;
37895;SDS011;23733;53.254;10.430;2022-08-19T04:04:58;14.47;;;9.77;;
37895;SDS011;23733;53.254;10.430;2022-08-19T04:07:24;16.80;;;10.17;;
37895;SDS011;23733;53.254;10.430;2022-08-19T04:09:50;14.20;;;8.77;;
37895;SDS011;23733;53.254;10.430;2022-08-19T04:12:17;17.70;;;9.20;;
37895;SDS011;23733;53.254;10.430;2022-08-19T04:14:45;14.40;;;8.53;;
37895;SDS011;23733;53.254;10.430;2022-08-19T04:17:11;14.00;;;8.73;;
37895;SDS011;23733;53.254;10.430;2022-08-19T04:19:39;14.00;;;8.47;;
37895;SDS011;23733;53.254;10.430;2022-08-19T04:22:05;13.93;;;8.43;;
37895;SDS011;23733;53.254;10.430;2022-08-19T04:24:33;13.97;;;7.90;;
37895;SDS011;23733;53.254;10.430;2022-08-19T04:27:00;12.83;;;7.83;;
37895;SDS011;23733;53.254;10.430;2022-08-19T04:29:27;11.53;;;7.20;;
37895;SDS011;23733;53.254;10.430;2022-08-19T04:31:55;12.50;;;6.80;;
37895;SDS011;23733;53.254;10.430;2022-08-19T04:34:23;9.47;;;6.40;;
37895;SDS011;23733;53.254;10.430;2022-08-19T04:36:52;10.07;;;6.43;;
37895;SDS011;23733;53.254;10.430;2022-08-19T04:39:20;10.37;;;6.73;;
37895;SDS011;23733;53.254;10.430;2022-08-19T04:41:48;11.50;;;7.00;;
37895;SDS011;23733;53.254;10.430;2022-08-19T04:44:34;13.90;;;6.70;;
37895;SDS011;23733;53.254;10.430;2022-08-19T04:47:01;12.77;;;7.37;;
37895;SDS011;23733;53.254;10.430;2022-08-19T04:49:30;12.37;;;6.90;;
37895;SDS011;23733;53.254;10.430;2022-08-19T04:51:57;11.20;;;7.23;;
37895;SDS011;23733;53.254;10.430;2022-08-19T04:54:24;14.70;;;7.53;;
37895;SDS011;23733;53.254;10.430;2022-08-19T04:56:51;15.60;;;7.33;;
37895;SDS011;23733;53.254;10.430;2022-08-19T04:59:18;15.17;;;7.77;;
37895;SDS011;23733;53.254;10.430;2022-08-19T05:01:45;10.10;;;6.60;;
37895;SDS011;23733;53.254;10.430;2022-08-19T05:04:15;12.40;;;7.33;;
37895;SDS011;23733;53.254;10.430;2022-08-19T05:06:44;12.30;;;7.67;;
37895;SDS011;23733;53.254;10.430;2022-08-19T05:09:12;13.20;;;7.53;;
37895;SDS011;23733;53.254;10.430;2022-08-19T05:11:39;12.67;;;7.10;;
37895;SDS011;23733;53.254;10.430;2022-08-19T05:14:05;17.37;;;8.10;;
37895;SDS011;23733;53.254;10.430;2022-08-19T05:16:32;16.07;;;7.97;;
37895;SDS011;23733;53.254;10.430;2022-08-19T05:18:59;11.77;;;7.27;;
37895;SDS011;23733;53.254;10.430;2022-08-19T05:21:44;16.60;;;8.53;;
37895;SDS011;23733;53.254;10.430;2022-08-19T05:24:29;17.90;;;9.00;;
37895;SDS011;23733;53.254;10.430;2022-08-19T05:26:55;15.07;;;8.40;;
37895;SDS011;23733;53.254;10.430;2022-08-19T05:29:23;14.03;;;8.40;;
37895;SDS011;23733;53.254;10.430;2022-08-19T05:31:51;16.13;;;9.03;;
37895;SDS011;23733;53.254;10.430;2022-08-19T05:34:19;13.80;;;8.40;;
37895;SDS011;23733;53.254;10.430;2022-08-19T05:36:48;20.37;;;9.53;;
37895;SDS011;23733;53.254;10.430;2022-08-19T05:39:17;16.63;;;8.97;;
37895;SDS011;23733;53.254;10.430;2022-08-19T05:41:46;14.43;;;8.33;;
37895;SDS011;23733;53.254;10.430;2022-08-19T05:44:14;21.30;;;9.20;;
37895;SDS011;23733;53.254;10.430;2022-08-19T05:46:45;15.10;;;8.20;;
37895;SDS011;23733;53.254;10.430;2022-08-19T05:49:12;14.93;;;8.67;;
37895;SDS011;23733;53.254;10.430;2022-08-19T05:51:41;14.57;;;8.40;;
37895;SDS011;23733;53.254;10.430;2022-08-19T05:54:08;18.17;;;8.80;;
37895;SDS011;23733;53.254;10.430;2022-08-19T05:56:36;16.77;;;8.63;;
37895;SDS011;23733;53.254;10.430;2022-08-19T05:59:07;14.50;;;8.50;;
37895;SDS011;23733;53.254;10.430;2022-08-19T06:01:36;17.90;;;9.60;;
37895;SDS011;23733;53.254;10.430;2022-08-19T06:04:04;15.57;;;9.37;;
37895;SDS011;23733;53.254;10.430;2022-08-19T06:06:30;15.87;;;9.30;;
37895;SDS011;23733;53.254;10.430;2022-08-19T06:08:56;17.80;;;8.93;;
37895;SDS011;23733;53.254;10.430;2022-08-19T06:11:36;22.43;;;11.90;;
37895;SDS011;23733;53.254;10.430;2022-08-19T06:14:14;22.87;;;11.27;;
37895;SDS011;23733;53.254;10.430;2022-08-19T06:16:42;22.57;;;12.10;;
37895;SDS011;23733;53.254;10.430;2022-08-19T06:19:10;20.67;;;10.63;;
37895;SDS011;23733;53.254;10.430;2022-08-19T06:21:39;23.90;;;11.90;;
37895;SDS011;23733;53.254;10.430;2022-08-19T06:24:08;23.60;;;13.43;;
37895;SDS011;23733;53.254;10.430;2022-08-19T06:26:36;22.13;;;12.33;;
37895;SDS011;23733;53.254;10.430;2022-08-19T06:29:05;21.80;;;12.90;;
37895;SDS011;23733;53.254;10.430;2022-08-19T06:31:33;29.23;;;15.10;;
37895;SDS011;23733;53.254;10.430;2022-08-19T06:34:00;26.43;;;15.70;;
37895;SDS011;23733;53.254;10.430;2022-08-19T06:36:35;30.27;;;17.80;;
37895;SDS011;23733;53.254;10.430;2022-08-19T06:39:09;35.77;;;19.63;;
37895;SDS011;23733;53.254;10.430;2022-08-19T06:41:38;33.73;;;19.20;;
37895;SDS011;23733;53.254;10.430;2022-08-19T06:44:09;28.50;;;17.53;;
37895;SDS011;23733;53.254;10.430;2022-08-19T06:46:37;30.07;;;18.60;;
37895;SDS011;23733;53.254;10.430;2022-08-19T06:49:04;32.37;;;19.23;;
37895;SDS011;23733;53.254;10.430;2022-08-19T06:51:31;33.63;;;19.40;;
37895;SDS011;23733;53.254;10.430;2022-08-19T06:53:58;37.07;;;20.80;;
37895;SDS011;23733;53.254;10.430;2022-08-19T06:56:25;35.57;;;20.77;;
37895;SDS011;23733;53.254;10.430;2022-08-19T06:59:00;33.77;;;19.83;;
37895;SDS011;23733;53.254;10.430;2022-08-19T07:01:28;35.40;;;19.97;;
37895;SDS011;23733;53.254;10.430;2022-08-19T07:03:55;36.00;;;20.83;;
37895;SDS011;23733;53.254;10.430;2022-08-19T07:06:21;28.97;;;18.13;;
37895;SDS011;23733;53.254;10.430;2022-08-19T07:08:47;31.30;;;18.37;;
37895;SDS011;23733;53.254;10.430;2022-08-19T07:11:15;30.30;;;18.60;;
37895;SDS011;23733;53.254;10.430;2022-08-19T07:13:43;29.27;;;18.77;;
37895;SDS011;23733;53.254;10.430;2022-08-19T07:16:13;29.63;;;17.87;;
37895;SDS011;23733;53.254;10.430;2022-08-19T07:18:42;28.20;;;18.10;;
37895;SDS011;23733;53.254;10.430;2022-08-19T07:21:10;30.83;;;18.40;;
37895;SDS011;23733;53.254;10.430;2022-08-19T07:23:42;31.63;;;18.73;;
37895;SDS011;23733;53.254;10.430;2022-08-19T07:26:16;33.30;;;18.80;;
37895;SDS011;23733;53.254;10.430;2022-08-19T07:28:46;33.23;;;19.83;;
37895;SDS011;23733;53.254;10.430;2022-08-19T07:31:14;32.10;;;19.40;;
37895;SDS011;23733;53.254;10.430;2022-08-19T07:33:44;35.57;;;20.73;;
37895;SDS011;23733;53.254;10.430;2022-08-19T07:36:11;32.70;;;19.67;;
37895;SDS011;23733;53.254;10.430;2022-08-19T07:38:43;39.87;;;21.70;;
37895;SDS011;23733;53.254;10.430;2022-08-19T07:41:12;44.77;;;22.60;;
37895;SDS011;23733;53.254;10.430;2022-08-19T07:43:41;39.90;;;22.53;;
37895;SDS011;23733;53.254;10.430;2022-08-19T07:46:09;34.80;;;19.77;;
37895;SDS011;23733;53.254;10.430;2022-08-19T07:48:36;35.80;;;19.60;;
37895;SDS011;23733;53.254;10.430;2022-08-19T07:51:04;36.50;;;20.83;;
37895;SDS011;23733;53.254;10.430;2022-08-19T07:53:32;34.33;;;20.23;;
37895;SDS011;23733;53.254;10.430;2022-08-19T07:55:59;35.23;;;21.53;;
37895;SDS011;23733;53.254;10.430;2022-08-19T07:58:28;41.23;;;20.20;;
37895;SDS011;23733;53.254;10.430;2022-08-19T08:00:54;41.23;;;21.30;;
37895;SDS011;23733;53.254;10.430;2022-08-19T08:03:21;38.13;;;22.93;;
37895;SDS011;23733;53.254;10.430;2022-08-19T08:06:11;40.13;;;22.23;;
37895;SDS011;23733;53.254;10.430;2022-08-19T08:08:57;34.97;;;20.80;;
37895;SDS011;23733;53.254;10.430;2022-08-19T08:11:37;40.30;;;22.13;;
37895;SDS011;23733;53.254;10.430;2022-08-19T08:14:05;43.97;;;22.33;;
37895;SDS011;23733;53.254;10.430;2022-08-19T08:16:36;43.30;;;24.50;;
37895;SDS011;23733;53.254;10.430;2022-08-19T08:19:06;35.73;;;20.30;;
37895;SDS011;23733;53.254;10.430;2022-08-19T08:21:33;44.83;;;23.40;;
37895;SDS011;23733;53.254;10.430;2022-08-19T08:23:59;48.20;;;23.10;;
37895;SDS011;23733;53.254;10.430;2022-08-19T08:26:25;47.03;;;24.63;;
37895;SDS011;23733;53.254;10.430;2022-08-19T08:28:52;51.80;;;26.20;;
37895;SDS011;23733;53.254;10.430;2022-08-19T08:31:19;42.93;;;23.13;;
37895;SDS011;23733;53.254;10.430;2022-08-19T08:33:45;44.77;;;25.10;;
37895;SDS011;23733;53.254;10.430;2022-08-19T08:36:13;52.47;;;26.30;;
37895;SDS011;23733;53.254;10.430;2022-08-19T08:38:39;41.33;;;22.93;;
37895;SDS011;23733;53.254;10.430;2022-08-19T08:43:56;49.80;;;24.53;;
37895;SDS011;23733;53.254;10.430;2022-08-19T08:46:24;45.23;;;22.80;;
37895;SDS011;23733;53.254;10.430;2022-08-19T08:52:09;40.53;;;21.40;;
37895;SDS011;23733;53.254;10.430;2022-08-19T08:54:42;47.80;;;23.57;;
37895;SDS011;23733;53.254;10.430;2022-08-19T08:57:12;42.70;;;22.93;;
37895;SDS011;23733;53.254;10.430;2022-08-19T08:59:43;44.07;;;21.67;;
37895;SDS011;23733;53.254;10.430;2022-08-19T09:02:16;41.57;;;20.80;;
37895;SDS011;23733;53.254;10.430;2022-08-19T09:04:42;40.60;;;20.87;;
37895;SDS011;23733;53.254;10.430;2022-08-19T09:07:23;38.17;;;19.80;;
37895;SDS011;23733;53.254;10.430;2022-08-19T09:10:13;42.93;;;21.33;;
37895;SDS011;23733;53.254;10.430;2022-08-19T09:12:59;37.90;;;19.63;;
37895;SDS011;23733;53.254;10.430;2022-08-19T09:15:42;42.53;;;20.70;;
37895;SDS011;23733;53.254;10.430;2022-08-19T09:18:13;38.70;;;20.57;;
37895;SDS011;23733;53.254;10.430;2022-08-19T09:20:40;40.30;;;21.13;;
37895;SDS011;23733;53.254;10.430;2022-08-19T09:23:06;46.03;;;20.30;;
37895;SDS011;23733;53.254;10.430;2022-08-19T09:25:33;38.43;;;18.20;;
37895;SDS011;23733;53.254;10.430;2022-08-19T09:28:00;42.13;;;19.50;;
37895;SDS011;23733;53.254;10.430;2022-08-19T09:30:49;41.03;;;19.70;;
37895;SDS011;23733;53.254;10.430;2022-08-19T09:33:16;35.23;;;18.03;;
37895;SDS011;23733;53.254;10.430;2022-08-19T09:35:42;40.33;;;19.70;;
37895;SDS011;23733;53.254;10.430;2022-08-19T09:38:08;34.53;;;17.87;;
37895;SDS011;23733;53.254;10.430;2022-08-19T09:40:34;40.87;;;19.33;;
37895;SDS011;23733;53.254;10.430;2022-08-19T09:43:01;36.77;;;19.13;;
37895;SDS011;23733;53.254;10.430;2022-08-19T09:45:28;39.57;;;19.20;;
37895;SDS011;23733;53.254;10.430;2022-08-19T09:47:54;35.60;;;18.27;;
37895;SDS011;23733;53.254;10.430;2022-08-19T09:50:22;30.57;;;17.40;;
37895;SDS011;23733;53.254;10.430;2022-08-19T09:52:49;29.50;;;16.73;;
37895;SDS011;23733;53.254;10.430;2022-08-19T09:55:15;36.60;;;19.67;;
37895;SDS011;23733;53.254;10.430;2022-08-19T09:57:41;35.47;;;17.03;;
37895;SDS011;23733;53.254;10.430;2022-08-19T10:00:08;33.53;;;16.33;;
37895;SDS011;23733;53.254;10.430;2022-08-19T10:02:34;32.73;;;17.30;;
37895;SDS011;23733;53.254;10.430;2022-08-19T10:05:00;33.30;;;17.60;;
37895;SDS011;23733;53.254;10.430;2022-08-19T10:07:46;33.53;;;18.67;;
37895;SDS011;23733;53.254;10.430;2022-08-19T10:10:12;37.10;;;18.43;;
37895;SDS011;23733;53.254;10.430;2022-08-19T10:12:38;34.23;;;17.97;;
37895;SDS011;23733;53.254;10.430;2022-08-19T10:15:05;35.33;;;17.93;;
37895;SDS011;23733;53.254;10.430;2022-08-19T10:17:31;34.63;;;17.47;;
37895;SDS011;23733;53.254;10.430;2022-08-19T10:20:00;34.97;;;17.30;;
37895;SDS011;23733;53.254;10.430;2022-08-19T10:22:28;35.43;;;17.23;;
37895;SDS011;23733;53.254;10.430;2022-08-19T10:24:54;33.30;;;16.27;;
37895;SDS011;23733;53.254;10.430;2022-08-19T10:27:20;28.87;;;15.43;;
37895;SDS011;23733;53.254;10.430;2022-08-19T10:29:47;30.50;;;16.50;;
37895;SDS011;23733;53.254;10.430;2022-08-19T10:32:13;33.50;;;17.67;;
37895;SDS011;23733;53.254;10.430;2022-08-19T10:34:39;36.77;;;18.30;;
37895;SDS011;23733;53.254;10.430;2022-08-19T10:37:06;33.60;;;17.43;;
37895;SDS011;23733;53.254;10.430;2022-08-19T10:39:32;35.93;;;18.87;;
37895;SDS011;23733;53.254;10.430;2022-08-19T10:42:04;42.50;;;21.67;;
37895;SDS011;23733;53.254;10.430;2022-08-19T10:44:32;43.23;;;21.03;;
37895;SDS011;23733;53.254;10.430;2022-08-19T10:47:01;39.37;;;19.53;;
37895;SDS011;23733;53.254;10.430;2022-08-19T10:49:28;35.60;;;19.27;;
37895;SDS011;23733;53.254;10.430;2022-08-19T10:51:55;35.57;;;20.77;;
37895;SDS011;23733;53.254;10.430;2022-08-19T10:54:39;41.30;;;21.00;;
37895;SDS011;23733;53.254;10.430;2022-08-19T10:57:24;44.10;;;23.07;;
37895;SDS011;23733;53.254;10.430;2022-08-19T10:59:55;40.27;;;20.80;;
37895;SDS011;23733;53.254;10.430;2022-08-19T11:02:21;39.93;;;22.30;;
37895;SDS011;23733;53.254;10.430;2022-08-19T11:04:47;41.07;;;23.20;;
37895;SDS011;23733;53.254;10.430;2022-08-19T11:07:15;43.87;;;22.00;;
37895;SDS011;23733;53.254;10.430;2022-08-19T11:09:42;38.30;;;22.40;;
37895;SDS011;23733;53.254;10.430;2022-08-19T11:12:09;42.93;;;23.10;;
37895;SDS011;23733;53.254;10.430;2022-08-19T11:14:36;42.33;;;22.47;;
37895;SDS011;23733;53.254;10.430;2022-08-19T11:17:03;43.93;;;23.23;;
37895;SDS011;23733;53.254;10.430;2022-08-19T11:19:30;39.07;;;22.57;;
37895;SDS011;23733;53.254;10.430;2022-08-19T11:21:57;46.30;;;23.40;;
37895;SDS011;23733;53.254;10.430;2022-08-19T11:24:26;45.37;;;24.57;;
37895;SDS011;23733;53.254;10.430;2022-08-19T11:26:53;48.90;;;24.73;;
37895;SDS011;23733;53.254;10.430;2022-08-19T11:29:25;45.27;;;24.17;;
37895;SDS011;23733;53.254;10.430;2022-08-19T11:31:53;47.23;;;25.33;;
37895;SDS011;23733;53.254;10.430;2022-08-19T11:34:22;46.70;;;23.53;;
37895;SDS011;23733;53.254;10.430;2022-08-19T11:36:51;43.63;;;25.27;;
37895;SDS011;23733;53.254;10.430;2022-08-19T11:39:19;42.90;;;23.57;;
37895;SDS011;23733;53.254;10.430;2022-08-19T11:41:46;45.97;;;24.03;;
37895;SDS011;23733;53.254;10.430;2022-08-19T11:44:13;41.30;;;23.10;;
37895;SDS011;23733;53.254;10.430;2022-08-19T11:46:39;45.70;;;26.30;;
37895;SDS011;23733;53.254;10.430;2022-08-19T11:49:07;47.37;;;25.93;;
37895;SDS011;23733;53.254;10.430;2022-08-19T11:51:34;43.53;;;24.57;;
37895;SDS011;23733;53.254;10.430;2022-08-19T11:54:01;44.37;;;25.67;;
37895;SDS011;23733;53.254;10.430;2022-08-19T11:56:27;44.93;;;26.30;;
37895;SDS011;23733;53.254;10.430;2022-08-19T11:58:54;45.80;;;24.67;;
37895;SDS011;23733;53.254;10.430;2022-08-19T12:01:22;40.77;;;24.57;;
37895;SDS011;23733;53.254;10.430;2022-08-19T12:03:50;46.60;;;26.07;;
37895;SDS011;23733;53.254;10.430;2022-08-19T12:06:22;43.23;;;23.90;;
37895;SDS011;23733;53.254;10.430;2022-08-19T12:08:57;45.47;;;25.33;;
37895;SDS011;23733;53.254;10.430;2022-08-19T12:11:25;43.00;;;23.60;;
37895;SDS011;23733;53.254;10.430;2022-08-19T12:13:51;44.77;;;24.83;;
37895;SDS011;23733;53.254;10.430;2022-08-19T12:16:23;41.47;;;24.07;;
37895;SDS011;23733;53.254;10.430;2022-08-19T12:18:52;38.07;;;22.20;;
37895;SDS011;23733;53.254;10.430;2022-08-19T12:21:20;36.63;;;23.00;;
37895;SDS011;23733;53.254;10.430;2022-08-19T12:23:52;35.03;;;22.23;;
37895;SDS011;23733;53.254;10.430;2022-08-19T12:26:20;35.33;;;22.13;;
37895;SDS011;23733;53.254;10.430;2022-08-19T12:28:46;36.93;;;23.10;;
37895;SDS011;23733;53.254;10.430;2022-08-19T12:31:13;34.80;;;22.50;;
37895;SDS011;23733;53.254;10.430;2022-08-19T12:33:40;30.37;;;20.93;;
37895;SDS011;23733;53.254;10.430;2022-08-19T12:36:08;33.63;;;23.33;;
37895;SDS011;23733;53.254;10.430;2022-08-19T12:38:36;40.33;;;24.07;;
37895;SDS011;23733;53.254;10.430;2022-08-19T12:41:04;35.93;;;22.43;;
37895;SDS011;23733;53.254;10.430;2022-08-19T12:43:32;36.97;;;22.57;;
37895;SDS011;23733;53.254;10.430;2022-08-19T12:45:58;27.40;;;20.37;;
37895;SDS011;23733;53.254;10.430;2022-08-19T12:48:24;36.00;;;22.70;;
37895;SDS011;23733;53.254;10.430;2022-08-19T12:50:50;33.10;;;22.00;;
37895;SDS011;23733;53.254;10.430;2022-08-19T12:53:16;34.83;;;22.77;;
37895;SDS011;23733;53.254;10.430;2022-08-19T12:55:42;36.33;;;21.67;;
37895;SDS011;23733;53.254;10.430;2022-08-19T12:58:09;32.37;;;23.43;;
37895;SDS011;23733;53.254;10.430;2022-08-19T13:00:35;33.03;;;22.50;;
37895;SDS011;23733;53.254;10.430;2022-08-19T13:03:01;31.97;;;22.30;;
37895;SDS011;23733;53.254;10.430;2022-08-19T13:05:29;29.33;;;20.20;;
37895;SDS011;23733;53.254;10.430;2022-08-19T13:07:57;34.03;;;22.50;;
37895;SDS011;23733;53.254;10.430;2022-08-19T13:10:27;30.90;;;21.37;;
37895;SDS011;23733;53.254;10.430;2022-08-19T13:13:00;29.37;;;20.93;;
37895;SDS011;23733;53.254;10.430;2022-08-19T13:15:36;29.80;;;20.53;;
37895;SDS011;23733;53.254;10.430;2022-08-19T13:18:05;28.93;;;20.60;;
37895;SDS011;23733;53.254;10.430;2022-08-19T13:20:34;31.10;;;19.10;;
37895;SDS011;23733;53.254;10.430;2022-08-19T13:23:01;31.60;;;18.30;;
37895;SDS011;23733;53.254;10.430;2022-08-19T13:25:27;30.23;;;19.13;;
37895;SDS011;23733;53.254;10.430;2022-08-19T13:27:53;29.73;;;18.60;;
37895;SDS011;23733;53.254;10.430;2022-08-19T13:30:21;27.03;;;19.67;;
37895;SDS011;23733;53.254;10.430;2022-08-19T13:33:07;29.17;;;18.53;;
37895;SDS011;23733;53.254;10.430;2022-08-19T13:35:42;31.33;;;20.40;;
37895;SDS011;23733;53.254;10.430;2022-08-19T13:38:20;26.27;;;18.93;;
37895;SDS011;23733;53.254;10.430;2022-08-19T13:40:47;27.83;;;19.50;;
37895;SDS011;23733;53.254;10.430;2022-08-19T13:43:15;27.03;;;18.67;;
37895;SDS011;23733;53.254;10.430;2022-08-19T13:45:42;26.00;;;18.73;;
37895;SDS011;23733;53.254;10.430;2022-08-19T13:48:09;28.13;;;19.97;;
37895;SDS011;23733;53.254;10.430;2022-08-19T13:50:37;26.67;;;18.90;;
37895;SDS011;23733;53.254;10.430;2022-08-19T13:53:07;25.27;;;18.73;;
37895;SDS011;23733;53.254;10.430;2022-08-19T13:55:34;24.23;;;17.83;;
37895;SDS011;23733;53.254;10.430;2022-08-19T13:58:02;26.57;;;17.87;;
37895;SDS011;23733;53.254;10.430;2022-08-19T14:00:29;25.50;;;17.63;;
37895;SDS011;23733;53.254;10.430;2022-08-19T14:03:01;27.00;;;18.00;;
37895;SDS011;23733;53.254;10.430;2022-08-19T14:05:28;22.33;;;16.67;;
37895;SDS011;23733;53.254;10.430;2022-08-19T14:07:55;22.93;;;17.17;;
37895;SDS011;23733;53.254;10.430;2022-08-19T14:10:22;22.87;;;16.87;;
37895;SDS011;23733;53.254;10.430;2022-08-19T14:12:48;21.60;;;15.73;;
37895;SDS011;23733;53.254;10.430;2022-08-19T14:15:17;21.60;;;15.30;;
37895;SDS011;23733;53.254;10.430;2022-08-19T14:17:43;20.97;;;15.63;;
37895;SDS011;23733;53.254;10.430;2022-08-19T14:20:12;22.20;;;16.07;;
37895;SDS011;23733;53.254;10.430;2022-08-19T14:22:41;24.23;;;15.20;;
37895;SDS011;23733;53.254;10.430;2022-08-19T14:25:09;18.13;;;14.13;;
37895;SDS011;23733;53.254;10.430;2022-08-19T14:27:38;18.73;;;13.57;;
37895;SDS011;23733;53.254;10.430;2022-08-19T14:30:07;20.07;;;14.97;;